Terminal Aerodrome Forecast
Issued by NWS

Home | Current Version | Previous Version | Text Only | Print | Product List | Glossary On
Versions: 1 2 3 4 5 6 7 8 9 10 11 12 13 14 15 16 17
893
FTUS41 KBTV 290803 AAA
TAFMPV
TAF AMD
KMPV 290803Z 2908/3006 VRB03KT P6SM BKN005
      TEMPO 2908/2912 SCT005 SCT250
     FM291200 VRB03KT P6SM SCT005 SCT250
     FM291400 10008KT P6SM FEW035 SCT200
     FM300000 VRB03KT P6SM SCT150 BKN200=

USA.gov is the U.S. government's official web portal to all federal, state and local government web resources and services.